Time;durP1;ratioP1;P1;durP2;ratioP2;P2;SDS_P1;SDS_P2;PMS_P1;PMS_P2;Temp;Humidity;BMP_temperature;BMP_pressure;BME280_temperature;BME280_humidity;BME280_pressure;Samples;Min_cycle;Max_cycle;Signal;HPM_P1;HPM_P2
2021/11/25 00:01:08;;;;;;;11.30;10.20;;;;;;;20.51;51.13;97085.41;5028285;28;20237;-82
2021/11/25 00:03:35;;;;;;;11.50;10.40;;;;;;;20.52;51.21;97079.50;5006934;28;20297;-83
2021/11/25 00:06:01;;;;;;;10.57;9.57;;;;;;;20.54;51.11;97082.97;5028590;28;20670;-83
2021/11/25 00:08:28;;;;;;;10.57;9.57;;;;;;;20.24;51.13;97028.56;5008264;28;20202;-83
2021/11/25 00:10:54;;;;;;;10.40;9.40;;;;;;;19.28;51.11;96853.41;5027792;28;20225;-83
2021/11/25 00:13:21;;;;;;;10.87;9.80;;;;;;;20.18;50.99;97006.31;5010469;28;20202;-83
2021/11/25 00:15:48;;;;;;;10.80;9.80;;;;;;;19.74;51.06;96932.81;4994117;28;20240;-85
2021/11/25 00:18:17;;;;;;;11.10;10.00;;;;;;;20.18;50.69;96998.66;5029089;28;20297;-82
2021/11/25 00:20:45;;;;;;;11.03;9.93;;;;;;;20.59;50.96;97059.28;5025738;28;20293;-82
2021/11/25 00:23:12;;;;;;;10.80;9.70;;;;;;;19.85;51.14;96932.28;4982932;28;20853;-82
2021/11/25 00:25:38;;;;;;;10.30;9.30;;;;;;;20.61;50.95;97060.19;5008905;28;20686;-83
2021/11/25 00:28:05;;;;;;;10.50;9.53;;;;;;;20.62;50.58;97056.81;5009753;28;20205;-83
2021/11/25 00:30:31;;;;;;;10.03;9.10;;;;;;;20.63;50.90;97050.88;5030214;28;20264;-83
2021/11/25 00:32:58;;;;;;;11.13;10.03;;;;;;;20.29;50.93;96992.16;5029240;28;20620;-83
2021/11/25 00:35:25;;;;;;;10.20;9.20;;;;;;;20.64;51.47;97047.50;4998578;28;20202;-83
2021/11/25 00:37:51;;;;;;;10.00;9.00;;;;;;;20.40;51.09;97006.03;5025543;28;20217;-82
2021/11/25 00:40:18;;;;;;;11.57;10.37;;;;;;;20.26;50.97;96968.22;5013342;28;20228;-82
2021/11/25 00:42:45;;;;;;;10.07;9.07;;;;;;;20.26;50.95;96976.75;4999285;28;20279;-83
2021/11/25 00:45:12;;;;;;;9.90;9.00;;;;;;;20.45;50.83;97003.59;4998293;28;20671;-83
2021/11/25 00:47:39;;;;;;;10.27;9.27;;;;;;;20.66;50.84;97032.22;4988333;28;20327;-83
2021/11/25 00:50:06;;;;;;;10.00;8.90;;;;;;;20.45;50.83;96995.94;4994669;28;20275;-83
2021/11/25 00:52:33;;;;;;;9.63;8.63;;;;;;;20.07;50.84;96926.03;5005427;28;20614;-83
2021/11/25 00:55:00;;;;;;;9.50;8.60;;;;;;;20.69;50.92;97037.41;4994424;28;20247;-83
2021/11/25 00:57:27;;;;;;;10.27;9.27;;;;;;;20.69;51.10;97045.91;5028046;28;20376;-82
2021/11/25 00:59:53;;;;;;;10.30;9.30;;;;;;;20.11;50.71;96943.16;5015590;28;20229;-83
2021/11/25 01:02:20;;;;;;;10.47;9.47;;;;;;;20.25;51.06;96999.69;4993459;28;20210;-83
2021/11/25 01:04:47;;;;;;;10.27;9.30;;;;;;;20.71;50.76;97033.19;5006976;28;20569;-82
2021/11/25 01:07:13;;;;;;;9.63;8.73;;;;;;;20.51;51.08;96996.09;5026854;28;20275;-82
2021/11/25 01:09:40;;;;;;;10.10;9.10;;;;;;;20.71;50.39;97015.31;5018803;28;20321;-82
2021/11/25 01:12:07;;;;;;;10.27;9.27;;;;;;;20.22;50.88;96951.13;5023803;28;20206;-83
2021/11/25 01:14:34;;;;;;;9.00;8.20;;;;;;;19.48;50.55;96798.75;5008389;28;20256;-82
2021/11/25 01:17:01;;;;;;;9.07;8.27;;;;;;;20.42;50.78;96961.00;5006414;28;20355;-82
2021/11/25 01:19:28;;;;;;;9.07;8.27;;;;;;;19.43;50.77;96788.44;4977458;28;20233;-83
2021/11/25 01:21:55;;;;;;;9.43;8.63;;;;;;;20.72;50.75;97001.75;5005830;28;20297;-83
2021/11/25 01:24:21;;;;;;;9.63;8.73;;;;;;;20.72;50.76;96999.19;5028189;28;20499;-82
2021/11/25 01:26:48;;;;;;;9.57;8.60;;;;;;;20.30;51.00;96931.75;4999137;28;20229;-82
2021/11/25 01:29:14;;;;;;;9.47;8.57;;;;;;;19.27;50.83;96759.97;5027518;28;20272;-82
2021/11/25 01:31:41;;;;;;;9.73;8.73;;;;;;;20.73;50.43;96999.22;5029090;28;20229;-83
2021/11/25 01:34:08;;;;;;;9.03;8.03;;;;;;;20.73;50.82;96990.69;5010115;28;20202;-82
2021/11/25 01:36:37;;;;;;;9.87;8.87;;;;;;;20.73;50.74;96995.78;5012826;28;20229;-82
2021/11/25 01:39:04;;;;;;;9.03;8.13;;;;;;;20.14;50.63;96886.28;5027438;28;20198;-83
2021/11/25 01:41:31;;;;;;;9.13;8.27;;;;;;;20.21;50.48;96913.66;5009066;28;20229;-82
2021/11/25 01:43:57;;;;;;;9.57;8.63;;;;;;;20.36;50.61;96917.47;4980002;28;20217;-82
2021/11/25 01:46:24;;;;;;;8.77;7.97;;;;;;;18.10;50.72;96549.78;5010058;28;20260;-85
2021/11/25 01:48:51;;;;;;;9.23;8.33;;;;;;;17.45;50.73;96409.03;5010646;28;20741;-83
2021/11/25 01:51:19;;;;;;;8.73;7.90;;;;;;;20.23;50.57;96884.81;4992320;28;20237;-82
2021/11/25 01:53:46;;;;;;;8.87;8.07;;;;;;;19.82;51.17;96829.34;4991731;28;20653;-83
2021/11/25 01:56:13;;;;;;;9.13;8.23;;;;;;;19.50;50.37;96777.56;4991362;28;20587;-82
2021/11/25 01:58:39;;;;;;;8.53;7.73;;;;;;;18.73;50.96;96646.44;4975357;28;20230;-83
2021/11/25 02:01:07;;;;;;;9.03;8.13;;;;;;;20.74;50.73;96977.09;4989840;28;20201;-83
2021/11/25 02:03:34;;;;;;;8.80;8.00;;;;;;;18.99;50.83;96665.81;4996405;28;20589;-82
2021/11/25 02:06:01;;;;;;;8.70;7.90;;;;;;;19.99;50.58;96841.69;5008121;28;20221;-82
2021/11/25 02:08:27;;;;;;;8.67;7.80;;;;;;;20.75;50.63;96966.06;5002168;28;20285;-83
2021/11/25 02:10:55;;;;;;;8.00;7.30;;;;;;;20.47;50.66;96908.38;5003339;28;20877;-83
2021/11/25 02:13:21;;;;;;;8.10;7.40;;;;;;;20.76;50.79;96963.56;5024377;28;20205;-82
2021/11/25 02:15:48;;;;;;;8.77;7.97;;;;;;;17.87;50.66;96469.50;5019035;28;20272;-82
2021/11/25 02:18:16;;;;;;;8.60;7.80;;;;;;;19.87;50.73;96799.75;5013974;23;20268;-85
2021/11/25 02:20:45;;;;;;;8.40;7.57;;;;;;;20.75;50.75;96959.25;4995559;28;20248;-84
2021/11/25 02:23:13;;;;;;;8.63;7.83;;;;;;;19.45;50.77;96733.25;5005062;28;20630;-83
2021/11/25 02:25:40;;;;;;;8.50;7.70;;;;;;;20.02;50.66;96831.53;4999600;28;20202;-83
2021/11/25 02:28:06;;;;;;;7.97;7.17;;;;;;;20.29;50.78;96873.91;4991408;28;20305;-83
2021/11/25 02:30:37;;;;;;;8.00;7.30;;;;;;;19.52;50.66;96744.47;5012573;28;20225;-83
2021/11/25 02:33:03;;;;;;;8.03;7.33;;;;;;;19.59;50.72;96751.44;4995453;28;20531;-83
2021/11/25 02:35:34;;;;;;;8.40;7.60;;;;;;;20.29;50.77;96866.25;5011471;28;20352;-85
2021/11/25 02:38:01;;;;;;;8.43;7.63;;;;;;;20.11;50.57;96832.59;5010284;28;20255;-84
2021/11/25 02:40:33;;;;;;;8.13;7.33;;;;;;;19.64;50.78;96752.41;4989544;28;20198;-83
2021/11/25 02:43:01;;;;;;;8.40;7.60;;;;;;;19.95;50.72;96800.75;5021051;28;20624;-83
2021/11/25 02:45:28;;;;;;;8.00;7.30;;;;;;;19.82;50.58;96775.81;5011183;28;20568;-84
2021/11/25 02:47:55;;;;;;;7.80;7.10;;;;;;;20.03;50.84;96814.56;4986455;28;20258;-84
2021/11/25 02:50:23;;;;;;;8.40;7.60;;;;;;;20.44;50.79;96876.81;4988080;28;20229;-82
2021/11/25 02:52:50;;;;;;;8.23;7.27;;;;;;;20.39;50.64;96869.03;4974083;28;20619;-83
2021/11/25 02:55:17;;;;;;;8.17;7.47;;;;;;;20.43;50.65;96878.50;5013142;28;20275;-83
2021/11/25 02:57:44;;;;;;;8.17;7.47;;;;;;;20.76;50.57;96932.03;4994093;28;20261;-84
2021/11/25 03:00:26;;;;;;;8.07;7.37;;;;;;;20.00;50.67;96796.66;5018634;28;20225;-83
2021/11/25 03:02:57;;;;;;;7.80;7.10;;;;;;;20.42;50.67;96861.47;5013172;28;20734;-82
2021/11/25 03:05:24;;;;;;;7.47;6.77;;;;;;;19.94;50.48;96774.41;4995533;28;20213;-83
2021/11/25 03:07:51;;;;;;;8.00;7.30;;;;;;;20.32;50.59;96841.66;4989529;28;20221;-84
2021/11/25 03:10:17;;;;;;;8.00;7.30;;;;;;;20.50;50.83;96871.84;4993460;28;20284;-83
2021/11/25 03:12:44;;;;;;;7.30;6.70;;;;;;;20.57;50.78;96869.47;5008334;28;20268;-83
2021/11/25 03:15:10;;;;;;;7.70;7.00;;;;;;;20.59;50.44;96872.94;4989420;28;20263;-83
2021/11/25 03:17:38;;;;;;;7.37;6.70;;;;;;;20.15;50.77;96796.16;5023413;28;20256;-83
2021/11/25 03:20:05;;;;;;;8.53;7.73;;;;;;;20.39;50.68;96833.31;4995463;28;20350;-85
2021/11/25 03:22:32;;;;;;;7.73;7.03;;;;;;;19.28;50.92;96640.28;4994770;28;20280;-83
2021/11/25 03:24:58;;;;;;;7.60;6.90;;;;;;;20.47;50.65;96849.69;5021219;28;20205;-83
2021/11/25 03:27:25;;;;;;;7.73;7.03;;;;;;;20.72;50.67;96890.22;5022885;28;20950;-83
2021/11/25 03:29:51;;;;;;;7.77;7.07;;;;;;;20.38;50.30;96846.03;5028027;28;20245;-83
2021/11/25 03:32:18;;;;;;;7.30;6.70;;;;;;;20.52;50.69;96878.69;5022902;28;20280;-83
2021/11/25 03:34:44;;;;;;;7.63;6.93;;;;;;;19.76;50.85;96745.94;5010993;28;20580;-83
2021/11/25 03:37:11;;;;;;;7.40;6.70;;;;;;;20.51;51.26;96878.66;5025276;28;20295;-83
2021/11/25 03:39:38;;;;;;;7.53;6.83;;;;;;;20.62;51.06;96906.19;5031332;28;20201;-84
2021/11/25 03:42:04;;;;;;;7.43;6.73;;;;;;;20.17;50.74;96815.81;5002782;28;20271;-83
2021/11/25 03:44:31;;;;;;;7.30;6.70;;;;;;;19.98;51.06;96788.97;5004846;28;20626;-83
2021/11/25 03:46:58;;;;;;;7.03;6.43;;;;;;;17.01;50.81;96280.88;4982387;28;20346;-83
2021/11/25 03:49:24;;;;;;;7.40;6.70;;;;;;;19.94;51.00;96764.22;5023005;28;20616;-83
2021/11/25 03:51:51;;;;;;;6.97;6.37;;;;;;;20.27;50.82;96817.72;5017231;28;20820;-85
2021/11/25 03:54:18;;;;;;;7.53;6.83;;;;;;;19.40;50.99;96691.53;5023856;28;20530;-83
2021/11/25 03:56:44;;;;;;;7.20;6.60;;;;;;;20.04;51.03;96792.50;5016280;28;20221;-83
2021/11/25 03:59:11;;;;;;;6.93;6.33;;;;;;;20.06;50.98;96796.78;5010626;28;20202;-84
2021/11/25 04:01:37;;;;;;;7.67;6.97;;;;;;;20.40;51.05;96841.84;5015227;28;20304;-83
2021/11/25 04:04:04;;;;;;;7.17;6.57;;;;;;;20.38;51.02;96831.59;5017483;28;20201;-82
2021/11/25 04:06:31;;;;;;;7.50;6.80;;;;;;;19.92;51.11;96747.13;5003957;28;20229;-82
2021/11/25 04:08:58;;;;;;;7.97;7.27;;;;;;;19.92;50.91;96775.19;5014637;28;20659;-83
2021/11/25 04:11:24;;;;;;;7.70;7.00;;;;;;;20.05;50.75;96764.47;4995414;28;20304;-84
2021/11/25 04:13:51;;;;;;;6.93;6.33;;;;;;;19.98;50.64;96749.00;4998735;28;20197;-84
2021/11/25 04:16:18;;;;;;;7.40;6.80;;;;;;;20.45;50.88;96820.69;5011180;28;20291;-84
2021/11/25 04:18:44;;;;;;;7.10;6.50;;;;;;;20.11;51.00;96771.38;5022918;28;20202;-82
2021/11/25 04:21:11;;;;;;;7.07;6.47;;;;;;;20.40;51.27;96819.72;4979857;28;20246;-83
2021/11/25 04:23:37;;;;;;;7.40;6.73;;;;;;;20.02;51.10;96748.22;5014890;28;20212;-83
2021/11/25 04:26:04;;;;;;;6.97;6.37;;;;;;;20.17;50.72;96771.56;5029146;28;20233;-83
2021/11/25 04:28:31;;;;;;;6.97;6.37;;;;;;;20.27;50.95;96788.78;5009733;28;20725;-85
2021/11/25 04:35:28;;;;;;;7.40;6.73;;;;;;;20.63;51.03;96844.06;5024688;28;20308;-80
2021/11/25 04:36:31;;;;;;;7.50;6.80;;;;;;;20.15;50.86;96765.56;5022124;28;20205;-83
2021/11/25 04:38:59;;;;;;;6.90;6.33;;;;;;;20.02;51.01;96754.19;5006664;28;20198;-83
2021/11/25 04:41:26;;;;;;;7.40;6.80;;;;;;;20.64;51.07;96853.47;5011096;28;20198;-84
2021/11/25 04:43:52;;;;;;;6.83;6.23;;;;;;;20.09;50.67;96758.59;5024827;28;20300;-83
2021/11/25 04:46:19;;;;;;;7.23;6.63;;;;;;;20.66;50.86;96856.06;5026680;28;20209;-83
2021/11/25 04:48:46;;;;;;;7.40;6.80;;;;;;;19.97;51.01;96730.25;5028146;28;20201;-84
2021/11/25 04:51:12;;;;;;;7.40;6.77;;;;;;;20.33;50.71;96787.25;5007572;28;20225;-84
2021/11/25 04:53:39;;;;;;;7.47;6.73;;;;;;;20.63;51.01;96836.41;4990154;28;20292;-83
2021/11/25 04:56:06;;;;;;;7.47;6.80;;;;;;;20.42;50.80;96801.88;5008306;28;20633;-82
2021/11/25 04:58:33;;;;;;;7.77;7.10;;;;;;;18.28;50.85;96450.22;5004672;28;20225;-85
2021/11/25 05:01:00;;;;;;;7.97;7.20;;;;;;;20.61;50.85;96845.75;4994923;28;20287;-83
2021/11/25 05:03:27;;;;;;;7.73;7.03;;;;;;;20.60;51.02;96845.72;5007851;28;20210;-83
2021/11/25 05:05:54;;;;;;;6.53;5.93;;;;;;;20.59;51.54;96838.88;5019241;28;20230;-83
2021/11/25 05:08:22;;;;;;;7.40;6.70;;;;;;;19.20;51.16;96602.66;5007916;28;20609;-84
2021/11/25 05:10:48;;;;;;;6.57;6.03;;;;;;;19.80;51.03;96717.13;5012291;28;20221;-83
2021/11/25 05:13:15;;;;;;;6.47;5.87;;;;;;;20.18;50.85;96771.59;5010527;28;20206;-82
2021/11/25 05:15:42;;;;;;;6.87;6.27;;;;;;;19.83;51.00;96716.31;5003962;28;20205;-84
2021/11/25 05:18:09;;;;;;;6.77;6.17;;;;;;;19.06;51.24;96576.88;5015234;28;20267;-83
2021/11/25 05:20:36;;;;;;;7.20;6.60;;;;;;;20.36;51.27;96799.19;5024000;28;20226;-83
2021/11/25 05:23:02;;;;;;;6.70;6.10;;;;;;;18.89;50.83;96569.66;5008603;28;20237;-83
2021/11/25 05:25:29;;;;;;;6.63;6.03;;;;;;;19.73;51.04;96697.44;5001176;28;20256;-82
2021/11/25 05:27:56;;;;;;;6.57;6.07;;;;;;;20.31;50.78;96781.22;5025672;28;20218;-84
2021/11/25 05:30:22;;;;;;;7.30;6.60;;;;;;;20.54;51.52;96802.19;5010462;28;20283;-85
2021/11/25 05:32:49;;;;;;;7.03;6.43;;;;;;;19.89;51.15;96683.31;5027810;28;20237;-83
2021/11/25 05:35:16;;;;;;;6.90;6.30;;;;;;;19.93;50.96;96693.63;4999102;28;20237;-84
2021/11/25 05:37:43;;;;;;;7.20;6.60;;;;;;;20.04;51.15;96701.50;4990880;28;20241;-85
2021/11/25 05:40:13;;;;;;;6.90;6.33;;;;;;;20.07;51.05;96721.97;5011894;28;20613;-84
2021/11/25 05:42:39;;;;;;;6.53;5.93;;;;;;;20.21;51.12;96725.75;5002678;28;20209;-84
2021/11/25 05:45:07;;;;;;;6.57;5.97;;;;;;;20.33;51.07;96773.63;4989312;28;20528;-84
2021/11/25 05:47:35;;;;;;;6.80;6.20;;;;;;;20.46;51.20;96781.56;4994438;28;20261;-84
2021/11/25 05:50:04;;;;;;;7.17;6.57;;;;;;;20.19;51.13;96768.19;5017250;28;20920;-83
2021/11/25 05:52:30;;;;;;;7.07;6.47;;;;;;;19.99;50.88;96714.16;4998773;28;20652;-84
2021/11/25 05:54:57;;;;;;;6.93;6.33;;;;;;;20.01;51.13;96715.91;5014623;28;20670;-84
2021/11/25 05:57:24;;;;;;;6.93;6.33;;;;;;;20.23;50.96;96744.50;5019634;28;20314;-84
2021/11/25 05:59:50;;;;;;;7.03;6.43;;;;;;;19.93;51.00;96695.34;4981089;28;20207;-84
2021/11/25 06:02:20;;;;;;;6.40;5.90;;;;;;;20.01;50.94;96711.66;4991222;28;20289;-84
2021/11/25 06:04:48;;;;;;;6.60;6.00;;;;;;;20.34;50.91;96776.19;4997519;28;20618;-83
2021/11/25 06:07:14;;;;;;;7.20;6.60;;;;;;;20.22;51.04;96752.13;5009571;28;20230;-84
2021/11/25 06:09:42;;;;;;;7.37;6.77;;;;;;;20.41;51.06;96789.97;4979542;28;20570;-84
2021/11/25 06:12:08;;;;;;;6.63;6.07;;;;;;;19.85;50.90;96684.97;5026276;28;20306;-84
2021/11/25 06:14:35;;;;;;;6.80;6.20;;;;;;;19.56;51.19;96631.59;4989023;28;20206;-84
2021/11/25 06:17:02;;;;;;;6.20;5.70;;;;;;;19.62;51.18;96645.34;4999414;28;20252;-83
2021/11/25 06:19:29;;;;;;;6.73;6.17;;;;;;;20.27;51.12;96755.63;5008520;28;20201;-84
2021/11/25 06:21:57;;;;;;;6.70;6.10;;;;;;;20.08;51.13;96720.31;5002890;28;20194;-83
2021/11/25 06:24:24;;;;;;;6.47;5.87;;;;;;;20.18;51.16;96743.53;4999001;28;20205;-84
2021/11/25 06:26:50;;;;;;;6.80;6.20;;;;;;;20.44;51.32;96782.38;5009274;28;20217;-84
2021/11/25 06:29:17;;;;;;;6.43;5.93;;;;;;;20.59;51.11;96810.78;4996806;28;20240;-84
2021/11/25 06:31:44;;;;;;;6.60;6.00;;;;;;;20.19;51.21;96741.84;4995285;28;20298;-84
2021/11/25 06:34:11;;;;;;;6.23;5.73;;;;;;;19.98;51.24;96697.16;4975920;28;20241;-84
2021/11/25 06:36:38;;;;;;;6.70;6.20;;;;;;;19.85;51.15;96679.88;4988980;28;20225;-83
2021/11/25 06:39:05;;;;;;;6.73;6.13;;;;;;;20.35;51.17;96766.88;4978612;28;20205;-85
2021/11/25 06:41:32;;;;;;;6.40;5.90;;;;;;;20.27;51.13;96743.75;5012930;28;20285;-83
2021/11/25 06:43:59;;;;;;;6.43;5.93;;;;;;;20.04;51.06;96698.97;4997289;28;20275;-83
2021/11/25 06:46:25;;;;;;;6.13;5.63;;;;;;;19.83;51.01;96655.13;4996644;28;20294;-84
2021/11/25 06:48:59;;;;;;;6.53;5.93;;;;;;;20.07;51.15;96721.97;4995575;28;20198;-83
2021/11/25 06:51:27;;;;;;;6.63;6.03;;;;;;;20.24;51.15;96738.56;4999331;28;20651;-84
2021/11/25 06:53:54;;;;;;;6.60;6.10;;;;;;;20.31;51.13;96757.44;5016879;28;20198;-84
2021/11/25 06:56:21;;;;;;;6.17;5.67;;;;;;;20.57;51.24;96804.81;4989580;28;20732;-83
2021/11/25 06:58:50;;;;;;;6.97;6.37;;;;;;;20.30;50.80;96761.66;5025886;28;20296;-84
2021/11/25 07:01:16;;;;;;;6.20;5.70;;;;;;;20.63;51.11;96818.53;4999002;28;20267;-84
2021/11/25 07:03:43;;;;;;;6.43;5.93;;;;;;;20.15;51.04;96735.81;5000334;28;20666;-84
2021/11/25 07:06:10;;;;;;;5.93;5.43;;;;;;;20.27;50.86;96753.94;5011789;28;20205;-84
2021/11/25 07:08:36;;;;;;;6.50;6.00;;;;;;;20.18;50.81;96737.56;5002385;28;20275;-85
2021/11/25 07:11:03;;;;;;;6.40;5.90;;;;;;;20.23;51.21;96741.09;4975062;28;20730;-83
2021/11/25 07:13:30;;;;;;;6.47;5.97;;;;;;;19.60;50.81;96635.94;5010468;28;20267;-84
2021/11/25 07:15:57;;;;;;;6.50;5.90;;;;;;;20.58;50.94;96811.63;5009211;28;20229;-86
2021/11/25 07:18:23;;;;;;;5.97;5.47;;;;;;;20.26;50.99;96756.47;5023661;28;20233;-84
2021/11/25 07:20:50;;;;;;;6.50;6.00;;;;;;;20.30;51.14;96765.91;4993697;28;20202;-83
2021/11/25 07:23:16;;;;;;;6.47;5.90;;;;;;;20.23;50.89;96752.16;5020686;28;20664;-81
2021/11/25 07:25:43;;;;;;;6.00;5.50;;;;;;;20.21;51.43;96752.94;5012317;28;20533;-84
2021/11/25 07:28:10;;;;;;;6.20;5.70;;;;;;;20.00;51.13;96720.13;5003642;28;20244;-84
2021/11/25 07:30:36;;;;;;;6.40;5.90;;;;;;;20.58;51.63;96816.72;5011354;28;20237;-84
2021/11/25 07:33:03;;;;;;;6.07;5.57;;;;;;;20.47;51.26;96793.53;5014683;28;20257;-83
2021/11/25 07:35:29;;;;;;;6.13;5.63;;;;;;;20.14;51.21;96744.31;4988762;28;20240;-84
2021/11/25 07:37:57;;;;;;;6.43;5.83;;;;;;;20.28;51.18;96767.56;4997160;28;20225;-85
2021/11/25 07:40:24;;;;;;;6.37;5.87;;;;;;;19.92;51.05;96701.25;4985181;28;20237;-83
2021/11/25 07:42:52;;;;;;;6.00;5.50;;;;;;;20.09;51.12;96730.53;4986078;28;20202;-84
2021/11/25 07:45:25;;;;;;;6.10;5.60;;;;;;;19.72;51.03;96664.25;4993118;28;20702;-85
2021/11/25 07:47:51;;;;;;;6.50;5.90;;;;;;;19.95;51.02;96711.50;5004186;28;20308;-86
2021/11/25 07:50:19;;;;;;;6.57;6.07;;;;;;;20.24;50.94;96761.53;5005951;28;20265;-85
2021/11/25 07:52:46;;;;;;;7.70;7.00;;;;;;;20.06;51.21;96730.47;5004634;28;20252;-85
2021/11/25 07:55:13;;;;;;;16.10;14.60;;;;;;;20.04;48.65;96739.78;5011833;28;20241;-84
2021/11/25 07:57:40;;;;;;;18.00;16.10;;;;;;;20.01;46.36;96728.66;5005977;28;20228;-83
2021/11/25 08:00:08;;;;;;;21.13;18.93;;;;;;;19.94;44.64;96723.41;4998441;28;20201;-81
2021/11/25 08:02:34;;;;;;;19.93;18.00;;;;;;;20.28;43.87;96781.16;4998263;28;20244;-83
2021/11/25 08:05:01;;;;;;;22.87;19.80;;;;;;;20.07;43.61;96736.44;5011719;28;20578;-84
2021/11/25 08:07:28;;;;;;;21.10;19.00;;;;;;;20.19;42.83;96754.59;4997036;28;20267;-83
2021/11/25 08:09:54;;;;;;;23.10;20.83;;;;;;;20.44;42.36;96810.44;5018923;28;20264;-84
2021/11/25 08:12:25;;;;;;;22.87;20.63;;;;;;;19.93;40.57;96702.97;4998911;28;20232;-82
2021/11/25 08:14:52;;;;;;;22.90;20.60;;;;;;;20.06;41.01;96729.59;5018112;28;20202;-83
2021/11/25 08:17:18;;;;;;;22.67;20.37;;;;;;;18.68;41.52;96488.53;5009719;28;20269;-84
2021/11/25 08:19:45;;;;;;;19.93;17.93;;;;;;;19.82;42.05;96684.03;5026825;28;20265;-83
2021/11/25 08:22:13;;;;;;;20.87;18.77;;;;;;;20.27;43.18;96766.69;5031374;28;20232;-82
2021/11/25 08:24:41;;;;;;;20.23;18.23;;;;;;;20.14;43.51;96763.84;5005246;28;21016;-83
2021/11/25 08:27:09;;;;;;;19.30;17.40;;;;;;;20.44;43.82;96813.88;5029784;28;20226;-85
2021/11/25 08:29:36;;;;;;;18.73;16.70;;;;;;;20.14;44.91;96757.06;4999983;28;20209;-85
2021/11/25 08:32:03;;;;;;;17.17;15.50;;;;;;;20.04;45.06;96737.22;4988106;28;21665;-82
2021/11/25 08:34:30;;;;;;;17.17;15.47;;;;;;;19.28;45.42;96612.28;5001563;28;20206;-85
2021/11/25 08:36:57;;;;;;;17.63;15.97;;;;;;;20.02;46.55;96730.38;5027712;28;20898;-83
2021/11/25 08:39:24;;;;;;;16.73;15.13;;;;;;;20.26;46.39;96776.88;5008382;28;20208;-83
2021/11/25 08:41:50;;;;;;;16.23;14.67;;;;;;;20.23;46.51;96770.03;4997201;28;20263;-83
2021/11/25 08:44:17;;;;;;;15.27;13.77;;;;;;;19.89;46.79;96719.91;5001432;28;20735;-84
2021/11/25 08:46:44;;;;;;;16.00;14.40;;;;;;;19.21;47.05;96591.66;5017040;28;20228;-83
2021/11/25 08:49:11;;;;;;;16.10;14.57;;;;;;;20.30;47.10;96776.09;5032569;28;20209;-81
2021/11/25 08:51:37;;;;;;;15.93;14.40;;;;;;;19.98;47.40;96719.22;4999256;28;20254;-82
2021/11/25 08:54:05;;;;;;;15.93;14.37;;;;;;;20.10;47.37;96726.31;5000240;28;20229;-82
2021/11/25 08:56:32;;;;;;;15.80;14.30;;;;;;;20.24;47.59;96755.56;4990239;28;20304;-84
2021/11/25 08:58:59;;;;;;;14.73;13.33;;;;;;;19.65;48.08;96650.50;4984203;28;20198;-84
2021/11/25 09:01:25;;;;;;;15.13;13.70;;;;;;;20.49;47.62;96796.09;4995360;28;20302;-85
2021/11/25 09:03:52;;;;;;;14.27;12.87;;;;;;;20.19;47.47;96742.69;5010982;28;20574;-82
2021/11/25 09:06:19;;;;;;;14.67;13.27;;;;;;;20.02;47.82;96719.31;4996772;28;20220;-83
2021/11/25 09:08:46;;;;;;;14.30;12.90;;;;;;;19.97;47.84;96699.66;5029528;28;20205;-84
2021/11/25 09:11:15;;;;;;;14.40;13.00;;;;;;;20.18;48.51;96738.44;5032317;28;20272;-84
2021/11/25 09:13:42;;;;;;;13.40;12.10;;;;;;;20.13;48.03;96722.16;5012846;28;20202;-81
2021/11/25 09:16:08;;;;;;;13.47;12.20;;;;;;;20.33;48.47;96754.06;4998473;28;20328;-84
2021/11/25 09:18:35;;;;;;;14.07;12.77;;;;;;;20.33;48.61;96763.41;5006553;28;20237;-83
2021/11/25 09:21:02;;;;;;;13.37;12.10;;;;;;;20.16;48.23;96740.06;4994039;28;20993;-83
2021/11/25 09:23:34;;;;;;;13.30;12.00;;;;;;;20.19;48.00;96742.69;5012714;28;20275;-83
2021/11/25 09:26:01;;;;;;;12.27;11.17;;;;;;;20.01;48.23;96716.75;5009611;28;20293;-84
2021/11/25 09:28:27;;;;;;;12.73;11.53;;;;;;;20.32;48.36;96771.91;4987737;28;20253;-80
2021/11/25 09:30:54;;;;;;;13.17;11.97;;;;;;;20.21;48.34;96756.34;4987145;28;20256;-83
2021/11/25 09:33:21;;;;;;;12.97;11.77;;;;;;;20.04;48.32;96716.81;5031052;28;20209;-83
2021/11/25 09:35:48;;;;;;;12.07;10.87;;;;;;;20.02;48.27;96721.88;4998774;28;20201;-83
2021/11/25 09:38:14;;;;;;;12.33;11.13;;;;;;;19.95;48.35;96706.41;4998322;28;20249;-83
2021/11/25 09:40:43;;;;;;;12.03;10.93;;;;;;;20.21;48.33;96758.03;5024934;28;20194;-84
2021/11/25 09:43:11;;;;;;;12.23;11.03;;;;;;;20.28;48.38;96780.31;5011699;28;20202;-87
2021/11/25 09:45:39;;;;;;;11.87;10.77;;;;;;;20.15;48.51;96747.69;5011634;28;20241;-84
2021/11/25 09:48:07;;;;;;;12.40;11.20;;;;;;;20.31;48.32;96777.84;5003371;28;20261;-84
2021/11/25 09:50:36;;;;;;;12.10;10.90;;;;;;;19.86;48.62;96703.66;5012364;28;20237;-84
2021/11/25 09:53:04;;;;;;;12.27;11.17;;;;;;;20.31;48.54;96770.19;4995684;28;20307;-83
2021/11/25 09:55:31;;;;;;;11.87;10.70;;;;;;;20.11;48.51;96728.03;4997357;28;20228;-85
2021/11/25 09:57:58;;;;;;;11.90;10.70;;;;;;;20.26;48.31;96754.78;5016237;28;20222;-83
2021/11/25 10:00:27;;;;;;;10.90;9.90;;;;;;;20.20;48.60;96746.13;5010819;28;20237;-83
2021/11/25 10:02:55;;;;;;;12.00;10.90;;;;;;;20.07;48.51;96734.75;5019071;28;20198;-83
2021/11/25 10:05:22;;;;;;;11.53;10.43;;;;;;;20.28;48.80;96759.91;5004507;28;20214;-83
2021/11/25 10:07:49;;;;;;;10.93;9.93;;;;;;;20.28;48.74;96762.47;5000936;28;20256;-82
2021/11/25 10:10:29;;;;;;;10.33;9.40;;;;;;;19.12;48.66;96568.50;5006235;28;20257;-83
2021/11/25 10:13:10;;;;;;;11.63;10.27;;;;;;;19.98;48.83;96710.75;5004658;28;20891;-83
2021/11/25 10:15:38;;;;;;;10.63;9.63;;;;;;;19.91;48.84;96696.97;4984700;28;20577;-84
2021/11/25 10:18:15;;;;;;;11.27;10.17;;;;;;;20.17;49.12;96739.28;4988280;28;20230;-84
2021/11/25 10:20:43;;;;;;;11.30;10.20;;;;;;;19.85;49.08;96677.31;4995158;28;20220;-83
2021/11/25 10:23:29;;;;;;;9.67;8.77;;;;;;;20.53;49.02;96792.78;5011503;28;20189;-84
2021/11/25 10:26:16;;;;;;;10.60;9.60;;;;;;;20.01;49.29;96714.19;4991595;28;20293;-84
2021/11/25 10:28:47;;;;;;;10.20;9.30;;;;;;;20.13;49.29;96724.69;5007379;28;20206;-83
2021/11/25 10:31:19;;;;;;;10.83;9.73;;;;;;;20.16;49.27;96726.47;5006757;28;20283;-83
2021/11/25 10:33:54;;;;;;;10.27;9.27;;;;;;;20.14;49.37;96723.03;4983551;28;20577;-84
2021/11/25 10:36:34;;;;;;;9.73;8.83;;;;;;;19.72;49.20;96649.81;5012055;28;20201;-84
2021/11/25 10:39:16;;;;;;;11.30;9.63;;;;;;;20.05;49.23;96698.16;5006635;28;20198;-83
2021/11/25 10:41:46;;;;;;;9.93;8.93;;;;;;;20.13;49.31;96716.22;5005699;28;20194;-83
2021/11/25 10:44:37;;;;;;;11.53;8.60;;;;;;;20.56;49.36;96785.19;4996817;28;20202;-83
2021/11/25 10:47:08;;;;;;;10.43;9.43;;;;;;;20.56;49.34;96796.28;5027003;28;20257;-82
2021/11/25 10:49:42;;;;;;;9.57;8.67;;;;;;;19.90;49.47;96685.91;4990624;28;20198;-83
2021/11/25 10:52:18;;;;;;;9.70;8.80;;;;;;;20.18;49.46;96728.22;4981099;28;20315;-84
2021/11/25 10:54:51;;;;;;;9.17;8.37;;;;;;;20.57;49.48;96792.03;5011036;28;20229;-84
2021/11/25 10:57:18;;;;;;;8.80;8.00;;;;;;;19.98;49.47;96691.19;4981393;28;20709;-84
2021/11/25 10:59:47;;;;;;;10.17;9.07;;;;;;;20.01;49.31;96701.44;4998389;28;20279;-87
2021/11/25 11:02:22;;;;;;;8.77;7.93;;;;;;;20.26;49.26;96731.81;5018958;28;20578;-84
2021/11/25 11:04:49;;;;;;;9.77;8.77;;;;;;;20.56;49.43;96782.63;4977381;28;20202;-84
2021/11/25 11:07:26;;;;;;;9.43;8.53;;;;;;;20.57;49.68;96782.66;5027960;28;20310;-82
2021/11/25 11:09:52;;;;;;;9.87;8.97;;;;;;;20.38;49.47;96741.41;5025785;28;20210;-84
2021/11/25 11:12:47;;;;;;;8.83;8.03;;;;;;;20.58;49.56;96768.22;5007008;28;20304;-83
2021/11/25 11:20:28;;;;;;;9.93;9.03;;;;;;;20.16;49.43;96688.22;4995318;28;20685;-85
2021/11/25 11:22:57;;;;;;;9.57;8.63;;;;;;;20.35;49.57;96711.59;4988225;28;20194;-84
2021/11/25 11:25:24;;;;;;;8.60;7.80;;;;;;;20.07;49.56;96659.94;4994428;28;20225;-84
2021/11/25 11:27:52;;;;;;;8.80;7.93;;;;;;;20.23;49.69;96675.63;4981269;28;20764;-82
2021/11/25 11:30:19;;;;;;;9.23;8.33;;;;;;;20.49;49.40;96722.09;4981979;28;20255;-83
2021/11/25 11:32:46;;;;;;;8.17;7.47;;;;;;;20.13;49.77;96650.72;4978265;28;20254;-85
2021/11/25 11:35:13;;;;;;;8.23;7.53;;;;;;;20.16;49.76;96653.34;5011708;28;20299;-84
2021/11/25 11:37:41;;;;;;;8.73;7.93;;;;;;;20.08;49.60;96638.69;4989770;28;20715;-84
2021/11/25 11:40:08;;;;;;;8.27;7.47;;;;;;;20.27;49.65;96662.09;5022261;28;20290;-84